Date,TemperatureHighF,TemperatureAvgF,TemperatureLowF,DewpointHighF,DewpointAvgF,DewpointLowF,HumidityHigh,HumidityAvg,HumidityLow,PressureMaxIn,PressureMinIn,WindSpeedMaxMPH,WindSpeedAvgMPH,GustSpeedMaxMPH,PrecipitationSumIn
2013-1-1,80,66,57,59,54,48,93,69,35,0.00,40.00,19,9,33,0.00
2013-1-2,75,65,56,58,53,45,92,68,44,0.00,40.00,17,8,27,0.00
2013-1-3,77,65,57,59,52,41,91,66,41,0.00,40.00,13,7,28,0.00
2013-1-4,80,68,57,60,51,42,98,58,37,0.00,40.00,14,6,29,0.00
2013-1-5,75,65,57,63,55,40,99,72,41,0.00,40.00,13,6,29,0.00
2013-1-6,76,64,55,61,54,41,99,74,46,0.00,40.00,13,5,28,0.00
2013-1-7,76,62,55,62,54,37,98,77,45,0.00,40.00,11,4,19,0.00
2013-1-8,74,63,54,59,52,41,95,70,47,0.00,40.00,16,6,30,0.00
2013-1-9,76,63,55,63,56,50,99,78,47,0.00,40.00,7,4,19,0.00
2013-1-10,73,62,54,65,56,47,99,81,53,0.00,40.00,10,5,16,0.02
2013-1-11,75,63,54,63,52,42,89,68,47,0.00,40.00,10,6,21,0.04
2013-1-12,77,64,54,62,53,44,94,71,39,0.00,40.00,11,6,15,0.01
2013-1-13,78,65,56,64,55,48,90,71,48,0.00,40.00,7,5,15,0.00
2013-1-14,78,66,57,64,56,47,93,73,46,0.00,40.00,10,4,17,0.00
2013-1-15,71,64,61,66,62,57,99,91,68,0.00,40.00,9,3,14,0.28
2013-1-16,70,62,57,66,60,52,99,91,75,0.00,40.00,7,2,11,0.16
2013-1-17,69,60,53,61,55,50,99,85,62,0.00,40.00,7,4,13,0.01
2013-1-18,72,61,51,61,53,46,99,76,45,0.00,40.00,8,5,16,0.00
2013-1-19,76,62,52,50,38,16,82,47,17,0.00,40.00,15,8,25,0.00
2013-1-20,72,62,52,55,35,14,94,41,15,0.00,40.00,17,9,26,0.00
2013-1-21,74,62,52,57,47,33,99,59,45,0.00,40.00,24,8,36,0.00
2013-1-22,75,62,51,57,51,44,99,70,41,0.00,40.00,17,6,27,0.00
2013-1-23,72,61,51,62,54,46,98,81,50,0.00,40.00,8,5,17,0.00
2013-1-24,71,61,54,62,56,51,99,82,51,0.00,40.00,10,5,18,0.00
2013-1-25,72,63,53,62,55,48,95,79,58,0.00,40.00,8,4,15,0.00
2013-1-26,71,62,53,59,51,38,95,69,43,0.00,40.00,9,5,16,0.00
2013-1-27,74,62,53,61,54,44,99,75,47,0.00,40.00,10,6,15,0.00
2013-1-28,72,63,55,61,54,45,96,76,54,0.00,40.00,11,4,15,0.00
2013-1-29,72,63,56,63,59,54,99,89,65,0.00,40.00,6,4,11,0.43
2013-1-30,72,64,59,68,62,59,99,92,71,0.00,40.00,7,2,13,0.70
2013-1-31,74,64,55,65,58,52,97,83,61,0.00,40.00,12,6,19,0.01
2013-2-1,79,66,56,60,51,42,99,64,29,0.00,40.00,19,8,32,0.00
2013-2-2,76,64,56,58,50,33,99,62,36,0.00,40.00,13,6,28,0.00
2013-2-3,74,60,49,59,51,28,99,73,40,0.00,40.00,15,8,27,0.00
2013-2-4,74,60,51,55,51,46,93,73,51,0.00,40.00,24,8,40,0.00
2013-2-5,74,61,52,56,52,47,96,73,48,0.00,40.00,15,6,29,0.00
2013-2-6,74,63,54,57,52,47,91,69,46,0.00,40.00,11,5,32,0.00
2013-2-7,74,63,55,62,56,49,96,78,58,0.00,40.00,9,5,17,0.00
2013-2-8,75,64,56,65,54,39,99,73,47,0.00,40.00,10,5,19,0.00
2013-2-9,75,64,53,59,53,40,99,71,39,0.00,40.00,16,8,26,0.00
2013-2-10,80,66,55,58,53,45,99,66,38,0.00,40.00,17,7,31,0.00
2013-2-11,75,64,55,58,52,44,89,67,35,0.00,40.00,17,8,32,0.00
2013-2-12,71,60,52,56,50,42,97,71,44,0.00,40.00,19,9,29,0.00
2013-2-13,71,60,47,50,47,38,85,65,39,0.00,40.00,14,6,23,0.00
2013-2-14,73,61,51,53,48,33,87,64,45,0.00,40.00,16,8,26,0.00
2013-2-15,75,62,51,57,50,41,92,69,36,0.00,40.00,15,6,28,0.00
2013-2-16,74,63,55,55,51,45,94,67,44,0.00,40.00,22,9,37,0.00
2013-2-17,75,65,57,57,48,38,82,57,40,0.00,40.00,13,7,32,0.00
2013-2-18,74,63,54,60,52,42,99,70,46,0.00,40.00,17,6,34,0.00
2013-2-19,76,64,53,54,48,42,87,56,38,0.00,40.00,21,9,34,0.00
2013-2-20,78,64,55,59,50,44,99,63,38,0.00,40.00,24,10,41,0.00
2013-2-21,76,64,54,62,52,43,89,66,41,0.00,40.00,15,7,26,0.00
2013-2-22,74,65,58,58,51,45,83,61,51,0.00,40.00,12,6,23,0.00
2013-2-23,74,65,57,56,50,44,85,60,45,0.00,40.00,17,7,31,0.00
2013-2-24,81,65,53,55,52,46,89,65,38,0.00,40.00,14,6,34,0.00
2013-2-25,77,65,54,57,50,43,89,60,40,0.00,40.00,16,8,34,0.00
2013-2-26,78,65,57,54,49,42,84,58,38,0.00,40.00,25,9,38,0.00
2013-2-27,76,63,53,59,52,48,99,71,41,0.00,40.00,16,6,26,0.00
2013-2-28,74,62,51,58,50,41,97,68,46,0.00,40.00,13,7,27,0.00
2013-3-1,76,63,53,53,46,39,88,55,33,0.00,40.00,21,10,36,0.00
2013-3-2,76,62,52,56,51,45,89,71,41,0.00,40.00,18,8,29,0.00
2013-3-3,73,62,52,56,50,45,88,68,49,0.00,40.00,12,7,25,0.00
2013-3-4,75,62,50,52,47,35,83,58,38,0.00,40.00,14,7,25,0.00
2013-3-5,74,62,51,55,49,39,82,62,41,0.00,40.00,11,5,26,0.00
2013-3-6,74,63,55,60,52,44,89,69,43,0.00,40.00,10,5,17,0.00
2013-3-7,71,61,52,61,54,40,99,79,50,0.00,40.00,9,5,19,0.08
2013-3-8,70,61,51,61,55,48,99,83,48,0.00,40.00,9,4,16,0.09
2013-3-9,78,65,52,59,50,43,96,61,36,0.00,40.00,16,8,28,0.01
2013-3-10,80,68,58,65,50,-100,99,70,42,0.00,40.00,19,-39,30,0.00
2013-3-11,74,64,55,64,56,45,99,77,46,0.00,40.00,11,5,17,0.79
2013-3-12,68,63,59,65,61,58,99,94,83,0.00,40.00,7,2,12,0.79
2013-3-13,74,64,53,61,56,48,99,77,48,0.00,40.00,10,5,19,0.00
2013-3-14,71,63,54,65,59,53,100,88,59,0.00,40.00,10,4,19,0.00
2013-3-15,68,62,58,67,61,57,100,96,70,0.00,40.00,10,3,16,0.04
2013-3-16,62,59,56,62,59,51,100,99,99,0.00,40.00,8,3,14,0.13
2013-3-17,67,60,55,59,55,51,99,85,66,0.00,40.00,6,2,11,0.01
2013-3-18,73,62,53,56,49,43,99,67,35,0.00,40.00,8,4,24,0.00
2013-3-19,74,62,51,58,51,44,96,70,41,0.00,40.00,9,5,17,0.00
2013-3-20,75,64,54,62,54,46,93,74,41,0.00,40.00,10,5,15,0.00
2013-3-21,75,66,57,59,56,52,92,72,49,0.00,40.00,8,5,18,0.00
2013-3-22,72,65,57,64,57,46,100,78,54,0.00,40.00,7,5,15,0.00
2013-3-23,70,64,57,66,60,54,99,91,59,0.00,40.00,7,4,14,0.00
2013-3-24,69,63,59,68,61,56,100,92,64,0.00,40.00,8,3,13,0.01
2013-3-25,76,66,54,64,58,51,99,77,53,0.00,40.00,8,4,19,0.01
2013-3-26,75,65,56,62,59,55,99,81,54,0.00,40.00,10,5,18,0.00
2013-3-27,78,66,58,60,55,49,99,71,36,0.00,40.00,9,5,17,0.00
2013-3-28,77,68,57,58,54,50,99,63,39,0.00,40.00,19,12,33,0.08
2013-3-29,74,62,54,65,56,47,100,81,46,0.00,40.00,10,5,21,0.87
2013-3-30,68,62,57,64,58,-100,99,95,68,0.00,40.00,8,3,13,0.73
2013-3-31,71,62,55,60,57,52,99,83,52,0.00,40.00,10,4,18,0.01
2013-4-1,69,59,51,55,49,42,99,73,40,0.00,40.00,9,5,21,0.00
2013-4-2,71,59,50,55,50,45,99,76,42,0.00,40.00,10,5,17,0.00
2013-4-3,71,61,51,54,50,46,96,69,43,0.00,40.00,9,4,16,0.00
2013-4-4,75,64,53,54,49,45,88,61,41,0.00,40.00,11,6,17,0.00
2013-4-5,76,66,55,62,54,46,94,68,40,0.00,40.00,10,5,18,0.00
2013-4-6,79,67,55,64,58,53,99,76,48,0.00,40.00,7,4,18,0.00
2013-4-7,76,66,56,66,61,55,99,85,60,0.00,40.00,10,4,14,0.00
2013-4-8,74,64,56,64,58,51,99,82,47,0.00,40.00,10,5,18,0.00
2013-4-9,75,66,58,65,60,55,99,82,55,0.00,40.00,11,6,16,0.00
2013-4-10,79,68,57,63,56,43,99,66,42,0.00,40.00,11,5,22,0.00
2013-4-11,78,68,57,65,60,56,99,80,49,0.00,40.00,8,4,16,0.00
2013-4-12,75,66,57,66,60,52,99,82,53,0.00,40.00,9,5,15,0.00
2013-4-13,83,68,60,67,60,44,99,79,25,0.00,40.00,11,5,22,0.00
2013-4-14,76,66,58,66,59,54,100,78,50,0.00,40.00,9,5,16,0.00
2013-4-15,76,67,57,63,59,52,99,78,55,0.00,40.00,9,4,16,0.00
2013-4-16,76,67,59,67,62,55,99,84,54,0.00,40.00,10,4,17,0.00
2013-4-17,75,65,55,66,57,46,99,77,47,0.00,40.00,15,6,25,0.00
2013-4-18,77,65,56,66,58,50,99,80,45,0.00,40.00,10,5,18,0.06
2013-4-19,73,64,55,66,60,51,99,86,51,0.00,40.00,9,4,16,0.01
2013-4-20,76,66,56,66,60,52,99,83,52,0.00,40.00,9,5,17,0.00
2013-4-21,74,66,55,65,59,51,99,81,50,0.00,40.00,10,5,20,0.00
2013-4-22,77,65,55,66,57,43,99,75,49,0.00,40.00,12,5,19,0.00
2013-4-23,78,67,58,65,59,51,99,77,46,0.00,40.00,8,5,17,0.01
2013-4-24,80,69,57,64,44,-100,99,68,43,0.00,40.00,13,6,23,0.01
2013-4-25,77,67,58,60,55,46,99,69,39,0.00,40.00,19,7,33,0.00
2013-4-26,76,66,57,65,57,50,99,76,46,0.00,40.00,11,5,25,0.00
2013-4-27,76,67,58,64,56,48,98,69,44,0.00,40.00,8,5,16,0.00
2013-4-28,75,67,58,62,57,50,90,71,50,0.00,40.00,8,4,16,0.00
2013-4-29,76,67,61,66,61,57,100,83,57,0.00,40.00,9,4,17,0.01
2013-4-30,76,67,58,63,60,54,99,78,53,0.00,40.00,10,5,19,0.01
2013-5-1,76,66,57,64,56,45,99,73,45,0.00,40.00,8,6,15,0.00
2013-5-2,76,65,58,65,61,56,99,87,59,0.00,40.00,12,5,19,0.26
2013-5-3,74,65,58,65,61,55,98,89,65,0.00,40.00,11,4,16,0.16
2013-5-4,72,65,59,64,60,54,98,86,67,0.00,40.00,8,4,18,0.01
2013-5-5,70,65,61,65,61,57,98,90,65,0.00,40.00,7,3,13,0.10
2013-5-6,73,66,60,64,62,58,98,87,67,0.00,40.00,7,3,13,0.04
2013-5-7,73,67,59,64,62,58,98,84,68,0.00,40.00,7,4,13,0.00
2013-5-8,76,68,59,65,60,54,94,78,55,0.00,40.00,9,5,15,0.00
2013-5-9,76,67,60,65,62,59,97,84,63,0.00,40.00,10,3,15,0.01
2013-5-10,76,68,61,69,60,-100,94,82,61,0.00,40.00,9,4,17,0.01
2013-5-11,78,68,62,69,62,-100,96,86,66,0.00,40.00,9,4,16,0.03
2013-5-12,79,69,62,66,63,59,95,82,59,0.00,40.00,20,7,32,0.02
2013-5-13,77,68,62,65,62,58,95,81,66,0.00,40.00,12,5,21,0.00
2013-5-14,78,69,61,62,58,48,93,67,50,0.00,40.00,16,7,30,0.00
2013-5-15,79,67,59,65,59,52,91,77,48,0.00,40.00,10,5,21,0.00
2013-5-16,78,65,59,61,42,-100,90,69,42,0.00,40.00,14,6,32,0.00
2013-5-17,79,66,59,64,55,-100,92,73,47,0.00,40.00,12,6,22,0.06
2013-5-18,74,66,59,67,60,54,94,82,64,0.00,40.00,10,6,18,0.04
2013-5-19,71,66,62,67,63,60,98,92,74,0.00,40.00,10,4,18,0.22
2013-5-20,72,64,58,64,60,55,98,90,69,0.00,40.00,9,4,14,1.10
2013-5-21,74,66,57,65,61,54,96,86,71,0.00,40.00,8,4,15,0.05
2013-5-22,76,68,59,63,60,55,94,77,55,0.00,40.00,9,4,17,0.00
2013-5-23,83,68,60,63,59,54,94,75,48,0.00,40.00,15,6,24,0.00
2013-5-24,81,68,60,62,58,54,94,71,50,0.00,40.00,18,8,29,0.00
2013-5-25,75,66,59,64,60,55,94,82,63,0.00,40.00,15,6,27,0.00
2013-5-26,78,68,60,63,59,52,93,74,56,0.00,40.00,17,6,29,0.00
2013-5-27,78,66,59,65,59,52,91,79,54,0.00,40.00,13,3,20,0.94
2013-5-28,74,67,58,64,61,56,93,81,65,0.00,40.00,10,5,19,0.01
2013-5-29,74,67,60,68,63,55,97,86,65,0.00,40.00,8,5,15,0.37
2013-5-30,76,68,59,67,62,54,97,81,68,0.00,40.00,12,6,20,0.02
2013-5-31,76,67,59,68,62,55,97,85,62,0.00,40.00,6,4,15,0.09
2013-6-1,78,70,61,66,63,59,97,80,61,0.00,40.00,12,5,21,0.04
2013-6-2,78,69,61,66,63,59,97,81,62,0.00,40.00,16,5,28,0.00
2013-6-3,78,69,59,64,61,57,95,78,56,0.00,40.00,9,4,19,0.00
2013-6-4,79,68,59,63,60,57,95,76,51,0.00,40.00,14,6,26,0.00
2013-6-5,77,67,57,62,57,51,87,71,51,0.00,40.00,11,6,20,0.00
2013-6-6,78,69,59,61,57,48,88,66,47,0.00,40.00,15,7,27,0.00
2013-6-7,77,68,59,62,56,48,91,69,42,0.00,40.00,20,8,29,0.00
2013-6-8,79,68,59,61,57,54,89,71,48,0.00,40.00,11,5,20,0.00
2013-6-9,78,69,59,64,59,54,89,72,47,0.00,40.00,12,5,22,0.00
2013-6-10,79,69,59,62,59,55,90,71,49,0.00,40.00,17,6,28,0.00
2013-6-11,79,67,61,64,61,58,95,81,51,0.00,40.00,10,3,19,0.00
2013-6-12,79,68,57,64,59,54,95,74,50,0.00,40.00,14,6,30,0.00
2013-6-13,83,69,58,62,50,-100,91,68,45,0.00,40.00,15,6,30,0.00
2013-6-14,80,68,60,61,57,52,90,69,47,0.00,40.00,18,6,27,0.00
2013-6-15,78,69,59,63,56,50,84,65,44,0.00,40.00,11,6,20,0.00
2013-6-16,79,68,59,63,57,44,86,69,46,0.00,40.00,10,6,20,0.00
2013-6-17,79,70,60,63,59,55,90,71,43,0.00,40.00,12,5,22,0.00
2013-6-18,78,67,59,62,59,55,90,76,52,0.00,40.00,10,4,19,0.00
2013-6-19,79,69,62,62,58,52,89,68,51,0.00,40.00,12,6,26,0.00